M I D A S
Marine Information and Data Acquisition System
Tripno 1889 of the Zeeleeuw from 2010-05-28 06:39:10 to 2010-05-28 13:46:39
Back to CruiseResearch ActivitiesStationsMapUnderway DataData graphs

EquipmentUnitsComments
TimeDGPSUTC
LatitudeDGPSDM.mWGS84
LongitudeDGPSDM.mWGS84
SpeedMeteo Stationm/sRelative wind speed
DirectionMeteo StationdegRelative wind direction
TemperatureMeteo Stationdeg CelciusAir temperature
PressureMeteo StationPaAtmospheric pressure
HumidityMeteo Station%Relative humidity
Missing or incorrect values are displayed as -999
Metereological data collected by the RV Zeeleeuw from 2010-05-28 06:24:11 to 2010-05-28 13:54:46
                                                                                    Next 1000 lines
Time Latitude Longitude Speed Direction Temperature Pressure Humidity
2010-05-28 06:24:22 51°13.662 2°55.956 4 75 12.3 101240 35
2010-05-28 06:24:27 51°13.662 2°55.953 4.2 36 12.3 101240 35
2010-05-28 06:24:31 51°13.663 2°55.95 3.4 78 12.4 101240 36
2010-05-28 06:24:37 51°13.665 2°55.945 2.6 41 12.4 101240 36
2010-05-28 06:24:42 51°13.666 2°55.94 4.2 77 12.3 101230 36
2010-05-28 06:24:48 51°13.668 2°55.932 4.7 34 12.3 101230 36
2010-05-28 06:24:54 51°13.67 2°55.924 4.7 21 12.3 101230 35
2010-05-28 06:24:59 51°13.673 2°55.916 5 33 12.3 101230 35
2010-05-28 06:25:05 51°13.676 2°55.906 5.6 23 12.3 101230 35
2010-05-28 06:25:10 51°13.678 2°55.897 5.4 34 12.3 101230 35
2010-05-28 06:25:15 51°13.681 2°55.887 5.1 79 12.3 101230 34
2010-05-28 06:25:20 51°13.683 2°55.878 4.6 38 12.3 101230 34
2010-05-28 06:25:25 51°13.685 2°55.869 5.9 75 12.3 101230 35
2010-05-28 06:25:30 51°13.686 2°55.86 6.8 38 12.3 101230 35
2010-05-28 06:25:35 51°13.688 2°55.851 5.9 81 12.3 101230 34
2010-05-28 06:25:40 51°13.689 2°55.842 5.1 40 12.3 101230 34
2010-05-28 06:25:45 51°13.69 2°55.834 3.9 81 12.3 101230 33
2010-05-28 06:25:50 51°13.691 2°55.825 3.6 39 12.3 101230 33
2010-05-28 06:25:55 51°13.691 2°55.816 4 26 12.3 101230 34
2010-05-28 06:26:00 51°13.692 2°55.808 3.5 34 12.3 101230 34
2010-05-28 06:26:05 51°13.692 2°55.8 4.5 83 12.3 101230 34
2010-05-28 06:26:10 51°13.692 2°55.792 3.8 31 12.3 101230 34
2010-05-28 06:26:15 51°13.692 2°55.784 4 82 12.3 101230 34
2010-05-28 06:26:21 51°13.692 2°55.776 3.4 31 12.3 101230 34
2010-05-28 06:26:25 51°13.692 2°55.77 2.9 76 12.3 101240 36
2010-05-28 06:26:30 51°13.693 2°55.764 2.4 32 12.3 101240 36
2010-05-28 06:26:35 51°13.693 2°55.758 2.5 22 12.3 101240 36
2010-05-28 06:26:39 51°13.693 2°55.756 3.5 33 12.3 101240 36
2010-05-28 06:26:44 51°13.693 2°55.753 3.9 75 12.3 101240 36
2010-05-28 06:26:49 51°13.694 2°55.751 3.2 34 12.3 101240 36
2010-05-28 06:26:54 51°13.694 2°55.75 2.6 24 12.4 101240 36
2010-05-28 06:26:59 51°13.695 2°55.749 1.1 33 12.4 101240 36
2010-05-28 06:27:03 51°13.695 2°55.748 2.4 26 12.4 101240 35
2010-05-28 06:27:08 51°13.696 2°55.748 1.1 32 12.4 101240 35
2010-05-28 06:27:13 51°13.697 2°55.748 1.8 282 12.4 101240 35
2010-05-28 06:27:18 51°13.698 2°55.748 1.8 267 12.4 101240 35
2010-05-28 06:27:23 51°13.698 2°55.748 1.8 283 12.4 101240 35
2010-05-28 06:27:27 51°13.699 2°55.748 1.9 34 12.4 101240 35
2010-05-28 06:27:33 51°13.699 2°55.747 3.2 79 12.5 101240 35
2010-05-28 06:27:38 51°13.699 2°55.745 3.5 34 12.5 101240 35
2010-05-28 06:27:42 51°13.699 2°55.744 3.4 77 12.5 101240 34
2010-05-28 06:27:47 51°13.699 2°55.742 4.3 39 12.5 101240 34
2010-05-28 06:27:52 51°13.698 2°55.739 4.5 21 12.5 101240 35
2010-05-28 06:27:57 51°13.697 2°55.737 3.6 25 12.5 101240 35
2010-05-28 06:28:02 51°13.696 2°55.734 3.9 24 12.5 101240 34
2010-05-28 06:28:06 51°13.696 2°55.733 3.4 263 12.5 101240 34
2010-05-28 06:28:11 51°13.696 2°55.733 3 286 12.5 101250 36
2010-05-28 06:28:16 51°13.697 2°55.733 3.6 261 12.5 101250 36
2010-05-28 06:28:21 51°13.699 2°55.732 3.1 284 12.5 101240 33
2010-05-28 06:28:26 51°13.702 2°55.733 4.7 255 12.5 101240 33
2010-05-28 06:28:31 51°13.704 2°55.732 4.4 250 12.6 101250 36
2010-05-28 06:28:36 51°13.707 2°55.732 3.3 321 12.6 101250 36
2010-05-28 06:28:41 51°13.711 2°55.731 2.9 286 12.6 101250 35
2010-05-28 06:28:46 51°13.714 2°55.73 1.8 33 12.6 101250 35
2010-05-28 06:28:51 51°13.718 2°55.729 2.8 324 12.6 101250 34
2010-05-28 06:28:56 51°13.723 2°55.727 3.1 32 12.6 101250 34
2010-05-28 06:29:01 51°13.728 2°55.724 3.3 285 12.6 101250 36
2010-05-28 06:29:06 51°13.734 2°55.721 3.5 324 12.6 101250 36
2010-05-28 06:29:11 51°13.74 2°55.715 4.4 280 12.6 101240 36
2010-05-28 06:29:15 51°13.746 2°55.711 4.2 322 12.6 101240 36
2010-05-28 06:29:21 51°13.755 2°55.704 5.1 283 12.6 101240 35
2010-05-28 06:29:26 51°13.764 2°55.698 4.9 317 12.6 101240 35
2010-05-28 06:29:31 51°13.773 2°55.691 5.7 281 12.6 101240 36
2010-05-28 06:29:36 51°13.782 2°55.683 5.6 316 12.6 101240 36
2010-05-28 06:29:41 51°13.792 2°55.674 6.1 284 12.6 101240 34
2010-05-28 06:29:46 51°13.801 2°55.665 4.9 327 12.6 101240 34
2010-05-28 06:29:51 51°13.811 2°55.656 4.8 321 12.6 101240 35
2010-05-28 06:29:56 51°13.822 2°55.646 6.6 327 12.6 101240 35
2010-05-28 06:30:01 51°13.832 2°55.637 5.5 280 12.6 101240 35
2010-05-28 06:30:06 51°13.843 2°55.628 6 322 12.6 101240 35
2010-05-28 06:30:11 51°13.854 2°55.618 6.5 285 12.7 101240 35
2010-05-28 06:30:15 51°13.863 2°55.611 5.7 322 12.7 101240 35
2010-05-28 06:30:21 51°13.877 2°55.601 6.3 283 12.7 101240 34
2010-05-28 06:30:26 51°13.889 2°55.593 6.2 321 12.7 101240 34
2010-05-28 06:30:31 51°13.9 2°55.584 5.7 282 12.7 101240 34
2010-05-28 06:30:36 51°13.912 2°55.575 4.9 323 12.7 101240 34
2010-05-28 06:30:41 51°13.924 2°55.566 6 280 12.7 101240 35
2010-05-28 06:30:46 51°13.936 2°55.557 5 320 12.7 101240 35
2010-05-28 06:30:51 51°13.948 2°55.547 5.7 324 12.6 101250 34
2010-05-28 06:30:56 51°13.96 2°55.538 6 316 12.6 101250 34
2010-05-28 06:31:01 51°13.972 2°55.529 5.4 278 12.6 101240 34
2010-05-28 06:31:06 51°13.984 2°55.52 7 323 12.6 101240 34
2010-05-28 06:31:11 51°13.996 2°55.512 6.4 286 12.6 101240 35
2010-05-28 06:31:16 51°14.009 2°55.503 6.2 320 12.6 101240 35
2010-05-28 06:31:21 51°14.021 2°55.494 5.5 319 12.6 101240 35
2010-05-28 06:31:26 51°14.033 2°55.485 6.3 316 12.6 101240 35
2010-05-28 06:31:31 51°14.045 2°55.477 5.1 284 12.6 101240 34
2010-05-28 06:31:35 51°14.055 2°55.47 6.5 325 12.6 101240 34
2010-05-28 06:31:41 51°14.07 2°55.46 6.8 278 12.6 101240 34
2010-05-28 06:31:46 51°14.083 2°55.451 7.1 317 12.6 101240 34
2010-05-28 06:31:51 51°14.096 2°55.442 7.5 20 12.6 101240 35
2010-05-28 06:31:56 51°14.109 2°55.433 7.7 317 12.6 101240 35
2010-05-28 06:32:01 51°14.121 2°55.424 6.1 319 12.6 101240 35
2010-05-28 06:32:06 51°14.133 2°55.416 8.9 315 12.6 101240 35
2010-05-28 06:32:11 51°14.146 2°55.407 8.3 316 12.6 101240 35
2010-05-28 06:32:16 51°14.159 2°55.398 9 37 12.6 101240 35
2010-05-28 06:32:21 51°14.171 2°55.389 7.3 281 12.6 101240 35
2010-05-28 06:32:26 51°14.182 2°55.38 8.9 316 12.6 101240 35
2010-05-28 06:32:32 51°14.196 2°55.369 6.2 284 12.6 101230 37
2010-05-28 06:32:37 51°14.207 2°55.36 6.8 318 12.6 101230 37
2010-05-28 06:32:42 51°14.217 2°55.351 8.4 280 12.6 101220 36
2010-05-28 06:32:47 51°14.226 2°55.342 7.5 35 12.6 101220 36
2010-05-28 06:32:51 51°14.234 2°55.335 7 319 12.6 101230 36
2010-05-28 06:32:56 51°14.242 2°55.327 6.8 32 12.6 101230 36
2010-05-28 06:33:02 51°14.252 2°55.318 6.4 284 12.6 101240 36
2010-05-28 06:33:07 51°14.26 2°55.31 5.9 34 12.6 101240 36
2010-05-28 06:33:11 51°14.266 2°55.304 5.8 278 12.6 101240 36
2010-05-28 06:33:17 51°14.275 2°55.295 6.4 39 12.6 101240 36
2010-05-28 06:33:21 51°14.28 2°55.29 6.1 278 12.6 101240 37
2010-05-28 06:33:27 51°14.288 2°55.281 5.8 315 12.6 101240 37
2010-05-28 06:33:32 51°14.294 2°55.274 6.4 283 12.6 101240 37
2010-05-28 06:33:36 51°14.299 2°55.268 5.8 37 12.6 101240 37
2010-05-28 06:33:41 51°14.304 2°55.261 6.8 282 12.6 101240 36
2010-05-28 06:33:47 51°14.311 2°55.253 6.2 318 12.6 101240 36
2010-05-28 06:33:52 51°14.316 2°55.247 6.8 318 12.6 101240 36
2010-05-28 06:33:56 51°14.32 2°55.242 6.6 32 12.6 101240 36
2010-05-28 06:34:01 51°14.325 2°55.237 7.1 21 12.5 101240 36
2010-05-28 06:34:06 51°14.33 2°55.233 7.2 33 12.5 101240 36
2010-05-28 06:34:12 51°14.335 2°55.227 7.8 284 12.5 101230 36
2010-05-28 06:34:17 51°14.34 2°55.224 7.7 34 12.5 101230 36
2010-05-28 06:34:21 51°14.343 2°55.221 6.6 284 12.5 101240 36
2010-05-28 06:34:27 51°14.349 2°55.216 7.3 236 12.5 101240 36
2010-05-28 06:34:32 51°14.355 2°55.212 6.3 284 12.5 101230 37
2010-05-28 06:34:37 51°14.361 2°55.208 6.7 234 12.5 101230 37
2010-05-28 06:34:41 51°14.365 2°55.205 7.7 285 12.5 101230 36
2010-05-28 06:34:47 51°14.373 2°55.2 8.1 233 12.5 101230 36
2010-05-28 06:34:51 51°14.379 2°55.195 8.1 22 12.5 101230 35
2010-05-28 06:34:56 51°14.385 2°55.19 7.5 37 12.5 101230 35
2010-05-28 06:35:01 51°14.392 2°55.184 8.5 282 12.5 101230 36
2010-05-28 06:35:07 51°14.402 2°55.178 8.6 36 12.5 101230 36
2010-05-28 06:35:12 51°14.41 2°55.172 8.7 28 12.4 101230 36
2010-05-28 06:35:16 51°14.417 2°55.167 7.7 36 12.4 101230 36
2010-05-28 06:35:22 51°14.428 2°55.159 9.4 284 12.4 101230 35
2010-05-28 06:35:27 51°14.439 2°55.152 8.3 32 12.4 101230 35
2010-05-28 06:35:31 51°14.447 2°55.146 9.2 285 12.4 101230 35
2010-05-28 06:35:36 51°14.458 2°55.139 9.6 33 12.4 101230 35
2010-05-28 06:35:41 51°14.47 2°55.129 9.2 286 12.4 101220 36
2010-05-28 06:35:47 51°14.485 2°55.117 9.6 30 12.4 101220 36
2010-05-28 06:35:52 51°14.498 2°55.105 8.9 19 12.4 101220 36
2010-05-28 06:35:56 51°14.508 2°55.095 9.7 316 12.4 101220 36
2010-05-28 06:36:01 51°14.521 2°55.081 10 285 12.4 101220 36
2010-05-28 06:36:07 51°14.536 2°55.062 10.3 316 12.4 101220 36
2010-05-28 06:36:12 51°14.548 2°55.044 11.3 279 12.4 101220 35
2010-05-28 06:36:16 51°14.558 2°55.028 11.5 318 12.4 101220 35
2010-05-28 06:36:21 51°14.57 2°55.008 11.3 278 12.4 101220 34
2010-05-28 06:36:27 51°14.586 2°54.984 11.2 36 12.4 101220 34
2010-05-28 06:36:32 51°14.6 2°54.966 10.1 280 12.4 101220 35
2010-05-28 06:36:36 51°14.611 2°54.953 10.7 316 12.4 101220 35
2010-05-28 06:36:41 51°14.627 2°54.938 10.1 283 12.4 101210 36
2010-05-28 06:36:46 51°14.642 2°54.925 9.9 35 12.4 101210 36
2010-05-28 06:36:52 51°14.661 2°54.909 9.5 21 12.4 101210 35
2010-05-28 06:36:57 51°14.677 2°54.896 11.4 34 12.4 101210 35
2010-05-28 06:37:01 51°14.69 2°54.885 11.7 280 12.4 101220 37
2010-05-28 06:37:07 51°14.71 2°54.868 11.5 38 12.4 101220 37
2010-05-28 06:37:11 51°14.723 2°54.858 11.7 279 12.4 101210 36
2010-05-28 06:37:16 51°14.738 2°54.844 10.2 39 12.4 101210 36
2010-05-28 06:37:21 51°14.754 2°54.831 11.6 284 12.4 101210 36
2010-05-28 06:37:27 51°14.773 2°54.814 12 37 12.4 101210 36
2010-05-28 06:37:32 51°14.789 2°54.799 9.4 282 12.4 101210 35
2010-05-28 06:37:36 51°14.801 2°54.786 10.2 319 12.4 101210 35
2010-05-28 06:37:42 51°14.819 2°54.767 10.3 278 12.4 101220 35
2010-05-28 06:37:47 51°14.834 2°54.75 8.4 319 12.4 101220 35
2010-05-28 06:37:52 51°14.848 2°54.732 9.9 320 12.3 101210 36
2010-05-28 06:37:56 51°14.859 2°54.717 9.7 318 12.3 101210 36
2010-05-28 06:38:01 51°14.873 2°54.699 10.5 279 12.3 101210 35
2010-05-28 06:38:07 51°14.89 2°54.675 10.3 318 12.3 101210 35
2010-05-28 06:38:12 51°14.904 2°54.656 11.8 282 12.3 101220 35
2010-05-28 06:38:16 51°14.915 2°54.641 11.8 318 12.3 101220 35
2010-05-28 06:38:21 51°14.929 2°54.621 11.1 317 12.3 101220 37
2010-05-28 06:38:27 51°14.946 2°54.598 9.8 318 12.3 101220 37
2010-05-28 06:38:31 51°14.957 2°54.583 11.5 285 12.4 101220 36
2010-05-28 06:38:36 51°14.971 2°54.565 10.1 315 12.4 101220 36
2010-05-28 06:38:41 51°14.985 2°54.547 11.9 315 12.4 101220 36
2010-05-28 06:38:46 51°14.999 2°54.53 11.5 320 12.4 101220 36
2010-05-28 06:38:51 51°15.013 2°54.512 10.9 315 12.4 101220 37
2010-05-28 06:38:56 51°15.028 2°54.495 11.1 316 12.4 101220 37
2010-05-28 06:39:01 51°15.042 2°54.477 12.8 279 12.4 101210 35
2010-05-28 06:39:06 51°15.056 2°54.46 10.5 317 12.4 101210 35
2010-05-28 06:39:11 51°15.07 2°54.442 12 22 12.4 101220 37
2010-05-28 06:39:16 51°15.084 2°54.424 10.6 316 12.4 101220 37
2010-05-28 06:39:21 51°15.098 2°54.406 10.5 282 12.4 101220 37
2010-05-28 06:39:26 51°15.112 2°54.388 12 318 12.4 101220 37
2010-05-28 06:39:31 51°15.126 2°54.37 12.8 280 12.4 101210 36
2010-05-28 06:39:36 51°15.141 2°54.351 11.7 317 12.4 101210 36
2010-05-28 06:39:41 51°15.155 2°54.333 11.3 283 12.4 101220 37
2010-05-28 06:39:46 51°15.17 2°54.315 11.9 317 12.4 101220 37
2010-05-28 06:39:51 51°15.184 2°54.297 13 320 12.4 101220 37
2010-05-28 06:39:56 51°15.199 2°54.279 13.2 317 12.4 101220 37
2010-05-28 06:40:01 51°15.213 2°54.261 12.9 278 12.4 101220 37
2010-05-28 06:40:06 51°15.228 2°54.243 13.3 316 12.4 101220 37
2010-05-28 06:40:11 51°15.242 2°54.226 12.6 282 12.4 101220 37
2010-05-28 06:40:16 51°15.257 2°54.208 12.3 317 12.4 101220 37
2010-05-28 06:40:21 51°15.271 2°54.19 11.8 316 12.4 101220 37
2010-05-28 06:40:27 51°15.289 2°54.168 11.1 317 12.4 101220 37
2010-05-28 06:40:31 51°15.3 2°54.153 12.8 287 12.4 101210 37
2010-05-28 06:40:36 51°15.314 2°54.134 11.7 316 12.4 101210 37
2010-05-28 06:40:41 51°15.328 2°54.115 11.6 316 12.4 101210 36
2010-05-28 06:40:46 51°15.343 2°54.096 12.6 317 12.4 101210 36
2010-05-28 06:40:51 51°15.357 2°54.077 12.3 318 12.3 101210 36
2010-05-28 06:40:56 51°15.371 2°54.058 12.1 318 12.3 101210 36
2010-05-28 06:41:01 51°15.386 2°54.039 12.5 282 12.3 101210 37
2010-05-28 06:41:06 51°15.4 2°54.02 13 317 12.3 101210 37
2010-05-28 06:41:11 51°15.414 2°54.002 12.5 317 12.4 101210 36
2010-05-28 06:41:16 51°15.429 2°53.983 12 317 12.4 101210 36
2010-05-28 06:41:21 51°15.443 2°53.964 12.1 283 12.3 101210 37
2010-05-28 06:41:26 51°15.458 2°53.946 11.5 317 12.3 101210 37
2010-05-28 06:41:31 51°15.472 2°53.927 13.3 278 12.3 101210 37
2010-05-28 06:41:36 51°15.487 2°53.908 12.9 317 12.3 101210 37
2010-05-28 06:41:41 51°15.501 2°53.889 13 282 12.3 101210 35
2010-05-28 06:41:46 51°15.516 2°53.871 12.4 317 12.3 101210 35
2010-05-28 06:41:51 51°15.53 2°53.852 12.8 317 12.3 101220 36
2010-05-28 06:41:56 51°15.544 2°53.833 11 316 12.3 101220 36
2010-05-28 06:42:01 51°15.559 2°53.814 11.9 283 12.3 101210 36
2010-05-28 06:42:06 51°15.573 2°53.796 12.1 316 12.3 101210 36
2010-05-28 06:42:11 51°15.588 2°53.776 11.2 281 12.3 101210 36
2010-05-28 06:42:16 51°15.602 2°53.757 11.4 317 12.3 101210 36
2010-05-28 06:42:21 51°15.616 2°53.738 11.2 284 12.2 101220 35
2010-05-28 06:42:26 51°15.63 2°53.719 12 319 12.2 101220 35
2010-05-28 06:42:31 51°15.645 2°53.7 12.5 286 12.3 101210 36
2010-05-28 06:42:36 51°15.659 2°53.681 11.3 320 12.3 101210 36
2010-05-28 06:42:41 51°15.673 2°53.662 12.2 318 12.3 101210 36
2010-05-28 06:42:47 51°15.69 2°53.639 12.7 317 12.3 101210 36
2010-05-28 06:42:51 51°15.702 2°53.624 12.7 317 12.3 101220 37
2010-05-28 06:42:56 51°15.716 2°53.605 12.5 318 12.3 101220 37
2010-05-28 06:43:01 51°15.731 2°53.586 12.6 318 12.3 101210 36
2010-05-28 06:43:06 51°15.745 2°53.567 11.4 319 12.3 101210 36
2010-05-28 06:43:11 51°15.759 2°53.547 12.1 282 12.3 101220 37
2010-05-28 06:43:16 51°15.773 2°53.529 11.8 316 12.3 101220 37
2010-05-28 06:43:21 51°15.788 2°53.51 12.6 281 12.2 101220 36
2010-05-28 06:43:26 51°15.802 2°53.492 11.2 317 12.2 101220 36
2010-05-28 06:43:31 51°15.817 2°53.474 11.3 317 12.2 101210 36
2010-05-28 06:43:36 51°15.832 2°53.457 12.6 33 12.2 101210 36
2010-05-28 06:43:41 51°15.847 2°53.44 11.3 278 12.3 101210 37
2010-05-28 06:43:46 51°15.862 2°53.424 11.9 317 12.3 101210 37
2010-05-28 06:43:51 51°15.878 2°53.407 11.4 28 12.3 101220 37
2010-05-28 06:43:56 51°15.893 2°53.393 13.2 315 12.3 101220 37
2010-05-28 06:44:01 51°15.909 2°53.378 12 283 12.3 101210 37
2010-05-28 06:44:06 51°15.924 2°53.364 11.8 316 12.3 101210 37
2010-05-28 06:44:11 51°15.94 2°53.349 11 285 12.3 101210 36
2010-05-28 06:44:16 51°15.957 2°53.337 11.9 315 12.3 101210 36
2010-05-28 06:44:21 51°15.972 2°53.323 12.3 281 12.3 101210 36
2010-05-28 06:44:26 51°15.989 2°53.311 13.6 35 12.3 101210 36
2010-05-28 06:44:31 51°16.005 2°53.297 11.9 284 12.3 101220 37
2010-05-28 06:44:36 51°16.021 2°53.285 11.5 33 12.3 101220 37
2010-05-28 06:44:41 51°16.037 2°53.272 11.1 22 12.3 101220 37
2010-05-28 06:44:47 51°16.057 2°53.258 11.2 39 12.3 101220 37
2010-05-28 06:44:51 51°16.07 2°53.248 12.4 25 12.3 101210 38
2010-05-28 06:44:56 51°16.086 2°53.236 10.1 40 12.3 101210 38
2010-05-28 06:45:01 51°16.102 2°53.223 10.7 29 12.3 101210 37
2010-05-28 06:45:07 51°16.122 2°53.208 10.9 36 12.3 101210 37
2010-05-28 06:45:11 51°16.135 2°53.199 11.3 279 12.2 101220 37
2010-05-28 06:45:16 51°16.151 2°53.186 11.2 317 12.2 101220 37
2010-05-28 06:45:21 51°16.167 2°53.174 11.7 282 12.3 101220 37
2010-05-28 06:45:26 51°16.183 2°53.162 12.7 31 12.3 101220 37
2010-05-28 06:45:31 51°16.199 2°53.15 11.4 285 12.3 101220 37
2010-05-28 06:45:36 51°16.215 2°53.137 12.2 35 12.3 101220 37
2010-05-28 06:45:41 51°16.232 2°53.125 11.4 281 12.3 101220 37
2010-05-28 06:45:46 51°16.248 2°53.112 10.8 316 12.3 101220 37
2010-05-28 06:45:51 51°16.264 2°53.1 12.5 315 12.2 101220 36
2010-05-28 06:45:56 51°16.28 2°53.086 11 34 12.2 101220 36
2010-05-28 06:46:01 51°16.296 2°53.074 11.6 282 12.2 101220 36
2010-05-28 06:46:06 51°16.312 2°53.061 10.1 317 12.2 101220 36
2010-05-28 06:46:11 51°16.328 2°53.049 10.6 281 12.2 101210 37
2010-05-28 06:46:16 51°16.345 2°53.037 10.9 34 12.2 101210 37
2010-05-28 06:46:21 51°16.361 2°53.024 12.5 277 12.2 101210 37
2010-05-28 06:46:26 51°16.377 2°53.011 10.9 316 12.2 101210 37
2010-05-28 06:46:31 51°16.393 2°52.999 12.5 278 12.2 101220 37
2010-05-28 06:46:36 51°16.409 2°52.986 11 37 12.2 101220 37
2010-05-28 06:46:41 51°16.425 2°52.973 12.3 287 12.2 101210 37
2010-05-28 06:46:46 51°16.441 2°52.961 12.1 32 12.2 101210 37
2010-05-28 06:46:51 51°16.457 2°52.949 12.3 26 12.2 101210 37
2010-05-28 06:46:56 51°16.473 2°52.936 11 38 12.2 101210 37
2010-05-28 06:47:01 51°16.49 2°52.924 10.3 27 12.2 101200 35
2010-05-28 06:47:07 51°16.509 2°52.908 11.6 32 12.2 101200 35
2010-05-28 06:47:11 51°16.522 2°52.899 12 280 12.1 101210 36
2010-05-28 06:47:16 51°16.538 2°52.887 11.3 37 12.1 101210 36
2010-05-28 06:47:21 51°16.555 2°52.876 10.9 26 12.1 101210 36
2010-05-28 06:47:26 51°16.571 2°52.865 12.3 35 12.1 101210 36
2010-05-28 06:47:31 51°16.587 2°52.853 10.3 284 12.1 101220 37
2010-05-28 06:47:36 51°16.604 2°52.842 11.7 35 12.1 101220 37
2010-05-28 06:47:41 51°16.62 2°52.83 11.6 279 12.1 101220 36
2010-05-28 06:47:46 51°16.636 2°52.819 11.2 315 12.1 101220 36
2010-05-28 06:47:52 51°16.655 2°52.805 11.2 24 12.1 101220 36
2010-05-28 06:47:56 51°16.668 2°52.796 11.1 34 12.1 101220 36
2010-05-28 06:48:01 51°16.685 2°52.784 11.4 278 12.2 101230 38
2010-05-28 06:48:06 51°16.701 2°52.772 11.3 32 12.2 101230 38
2010-05-28 06:48:11 51°16.717 2°52.761 10.1 283 12.1 101220 36
2010-05-28 06:48:16 51°16.733 2°52.749 11.7 34 12.1 101220 36
2010-05-28 06:48:21 51°16.749 2°52.737 12.3 280 12.1 101220 36
2010-05-28 06:48:26 51°16.764 2°52.725 11.2 34 12.1 101220 36
2010-05-28 06:48:31 51°16.78 2°52.714 11.2 278 12.1 101220 37
2010-05-28 06:48:36 51°16.796 2°52.703 11 35 12.1 101220 37
2010-05-28 06:48:41 51°16.811 2°52.691 11.7 286 12.1 101230 36
2010-05-28 06:48:46 51°16.827 2°52.681 11.2 30 12.1 101230 36
2010-05-28 06:48:51 51°16.843 2°52.67 10.1 19 12.1 101220 37
2010-05-28 06:48:56 51°16.859 2°52.659 11.3 37 12.1 101220 37
2010-05-28 06:49:01 51°16.874 2°52.649 10.7 24 12.1 101220 37
2010-05-28 06:49:06 51°16.89 2°52.638 11.5 32 12.1 101220 37
2010-05-28 06:49:11 51°16.906 2°52.628 10.7 284 12.1 101230 37
2010-05-28 06:49:16 51°16.923 2°52.618 9.8 315 12.1 101230 37
2010-05-28 06:49:21 51°16.939 2°52.608 9.7 22 12.1 101220 36
2010-05-28 06:49:26 51°16.955 2°52.598 10.8 34 12.1 101220 37
2010-05-28 06:49:31 51°16.971 2°52.589 9.9 283 12.1 101220 37
2010-05-28 06:49:36 51°16.988 2°52.581 10.1 39 12.1 101230 36
2010-05-28 06:49:40 51°17.002 2°52.575 10.2 287 12.1 101230 36
2010-05-28 06:49:46 51°17.022 2°52.569 9.9 34 12.1 101230 37
2010-05-28 06:49:51 51°17.039 2°52.563 10.4 283 12.1 101230 37
2010-05-28 06:49:56 51°17.055 2°52.561 10.4 234 12.1 101230 37
2010-05-28 06:50:01 51°17.072 2°52.557 9.6 281 12.1 101220 38
2010-05-28 06:50:06 51°17.088 2°52.556 10.1 234 12.1 101220 38
2010-05-28 06:50:11 51°17.105 2°52.555 9.9 281 12.1 101230 37
2010-05-28 06:50:16 51°17.122 2°52.554 9.5 36 12.1 101230 36
2010-05-28 06:50:21 51°17.138 2°52.554 9.6 281 12.1 101230 36
2010-05-28 06:50:26 51°17.155 2°52.554 10.5 233 12.1 101230 36
2010-05-28 06:50:31 51°17.171 2°52.554 9.2 282 12.1 101230 36
2010-05-28 06:50:36 51°17.188 2°52.554 8.9 37 12.1 101230 36
2010-05-28 06:50:41 51°17.204 2°52.555 11 280 12.1 101230 36
2010-05-28 06:50:47 51°17.224 2°52.556 9.5 34 12.1 101230 36
2010-05-28 06:50:51 51°17.237 2°52.558 10.3 285 12.1 101230 36
2010-05-28 06:50:56 51°17.253 2°52.562 9 31 12.1 101230 36
2010-05-28 06:51:01 51°17.268 2°52.567 7.7 283 12.1 101230 36
2010-05-28 06:51:07 51°17.286 2°52.576 8.9 237 12.1 101230 36
2010-05-28 06:51:11 51°17.298 2°52.581 8.3 286 12.1 101230 36
2010-05-28 06:51:16 51°17.313 2°52.591 8.6 240 12.1 101230 36
2010-05-28 06:51:21 51°17.328 2°52.599 8.1 280 12.1 101230 37
2010-05-28 06:51:27 51°17.344 2°52.611 7.9 241 12.1 101230 37
2010-05-28 06:51:31 51°17.355 2°52.62 8.1 282 12.1 101230 36
2010-05-28 06:51:36 51°17.368 2°52.632 8.2 240 12.1 101230 36
2010-05-28 06:51:41 51°17.381 2°52.644 8.2 281 12.1 101240 37
2010-05-28 06:51:47 51°17.397 2°52.658 8.2 245 12.1 101240 37
2010-05-28 06:51:51 51°17.407 2°52.669 7.6 282 12.1 101240 35
2010-05-28 06:51:56 51°17.419 2°52.682 7.3 246 12.1 101240 37
2010-05-28 06:52:01 51°17.431 2°52.696 7.6 283 12.1 101240 37
2010-05-28 06:52:06 51°17.443 2°52.709 6.5 244 12.1 101240 37
2010-05-28 06:52:11 51°17.454 2°52.724 6.8 281 12.1 101250 36
2010-05-28 06:52:16 51°17.466 2°52.737 7.8 244 12.1 101250 36
2010-05-28 06:52:21 51°17.478 2°52.752 7.7 284 12.1 101250 36
2010-05-28 06:52:27 51°17.493 2°52.768 7.7 245 12.1 101250 36
2010-05-28 06:52:31 51°17.502 2°52.779 7.5 278 12.1 101250 37
2010-05-28 06:52:36 51°17.514 2°52.793 7.3 246 12.1 101240 37
2010-05-28 06:52:41 51°17.526 2°52.806 7.1 284 12.1 101240 37
2010-05-28 06:52:47 51°17.541 2°52.823 7.5 248 12.1 101240 37
2010-05-28 06:52:51 51°17.55 2°52.834 6.3 283 12.2 101240 36
2010-05-28 06:52:56 51°17.562 2°52.848 7.4 249 12.1 101240 36
2010-05-28 06:53:01 51°17.574 2°52.862 7.5 278 12.1 101240 36
2010-05-28 06:53:07 51°17.587 2°52.879 6.7 251 12.1 101240 36
2010-05-28 06:53:11 51°17.595 2°52.89 6.8 279 12.1 101250 36
2010-05-28 06:53:16 51°17.606 2°52.904 5.6 251 12.1 101250 36
2010-05-28 06:53:21 51°17.616 2°52.917 5.5 277 12.2 101250 36
2010-05-28 06:53:27 51°17.627 2°52.932 6.2 250 12.2 101250 36
2010-05-28 06:53:31 51°17.635 2°52.941 5.9 284 12.2 101250 36
2010-05-28 06:53:36 51°17.643 2°52.952 6.2 249 12.2 101250 36
2010-05-28 06:53:41 51°17.651 2°52.962 5.9 277 12.2 101250 36
2010-05-28 06:53:46 51°17.659 2°52.971 7 251 12.2 101260 37
2010-05-28 06:53:51 51°17.666 2°52.979 5.9 285 12.2 101260 37
2010-05-28 06:53:56 51°17.674 2°52.987 5.6 250 12.3 101250 38
2010-05-28 06:54:01 51°17.681 2°52.993 5.8 286 12.3 101250 38
2010-05-28 06:54:06 51°17.687 2°53 6.1 250 12.3 101250 37
2010-05-28 06:54:11 51°17.693 2°53.005 7 284 12.3 101250 37
2010-05-28 06:54:16 51°17.699 2°53.011 6.4 247 12.3 101240 38
2010-05-28 06:54:20 51°17.704 2°53.014 6.4 284 12.3 101240 38
2010-05-28 06:54:26 51°17.711 2°53.019 6.7 252 12.4 101240 35
2010-05-28 06:54:31 51°17.717 2°53.023 7.3 277 12.4 101240 35
2010-05-28 06:54:36 51°17.722 2°53.027 7 248 12.4 101240 35
2010-05-28 06:54:41 51°17.727 2°53.03 6.8 285 12.4 101250 38
2010-05-28 06:54:46 51°17.732 2°53.033 6.8 250 12.4 101250 36
2010-05-28 06:54:51 51°17.737 2°53.036 6.8 286 12.4 101250 36
2010-05-28 06:54:56 51°17.742 2°53.039 6.8 249 12.5 101250 35
2010-05-28 06:55:01 51°17.746 2°53.041 7.8 285 12.5 101250 35
2010-05-28 06:55:06 51°17.751 2°53.044 7 251 12.5 101250 35
2010-05-28 06:55:11 51°17.755 2°53.046 8.2 279 12.4 101240 37
2010-05-28 06:55:16 51°17.759 2°53.048 7.7 253 12.4 101240 37
2010-05-28 06:55:21 51°17.763 2°53.051 7.5 283 12.5 101240 36
2010-05-28 06:55:27 51°17.768 2°53.053 6.4 253 12.5 101240 36
2010-05-28 06:55:31 51°17.771 2°53.054 7.1 286 12.5 101240 36
2010-05-28 06:55:36 51°17.775 2°53.057 7.7 250 12.5 101240 36
2010-05-28 06:55:41 51°17.778 2°53.058 6.4 277 12.5 101240 36
2010-05-28 06:55:46 51°17.782 2°53.06 6.6 252 12.4 101240 37
2010-05-28 06:55:51 51°17.785 2°53.062 6.2 286 12.4 101240 37
2010-05-28 06:55:56 51°17.789 2°53.063 8.2 254 12.4 101240 37
2010-05-28 06:56:01 51°17.792 2°53.065 7.7 284 12.5 101250 36
2010-05-28 06:56:07 51°17.796 2°53.067 7.9 254 12.5 101250 36
2010-05-28 06:56:11 51°17.799 2°53.068 7 284 12.5 101240 36
2010-05-28 06:56:16 51°17.802 2°53.069 6.6 250 12.5 101240 36
2010-05-28 06:56:21 51°17.805 2°53.07 7.7 283 12.5 101250 36
2010-05-28 06:56:26 51°17.808 2°53.071 7.5 254 12.5 101250 36
2010-05-28 06:56:31 51°17.811 2°53.073 8.6 285 12.5 101240 36
2010-05-28 06:56:36 51°17.814 2°53.074 7.7 253 12.5 101250 36
2010-05-28 06:56:41 51°17.818 2°53.075 7.4 284 12.5 101250 36
2010-05-28 06:56:46 51°17.821 2°53.075 7.3 252 12.5 101250 36
2010-05-28 06:56:51 51°17.824 2°53.077 6.4 283 12.5 101250 35
2010-05-28 06:56:56 51°17.827 2°53.077 7.2 251 12.5 101240 35
2010-05-28 06:57:01 51°17.83 2°53.079 6.5 278 12.5 101240 35
2010-05-28 06:57:07 51°17.835 2°53.08 7.5 247 12.5 101240 35
2010-05-28 06:57:11 51°17.838 2°53.081 6.4 282 12.5 101240 34
2010-05-28 06:57:16 51°17.842 2°53.083 7.5 251 12.5 101250 35
2010-05-28 06:57:21 51°17.846 2°53.086 7 285 12.5 101250 35
2010-05-28 06:57:27 51°17.852 2°53.091 6.9 255 12.5 101250 35
2010-05-28 06:57:31 51°17.855 2°53.095 6.7 284 12.5 101240 36
2010-05-28 06:57:36 51°17.86 2°53.101 7.6 256 12.5 101240 36
2010-05-28 06:57:41 51°17.865 2°53.108 6.4 282 12.5 101240 34
2010-05-28 06:57:47 51°17.871 2°53.117 6.9 256 12.5 101240 34
2010-05-28 06:57:51 51°17.876 2°53.124 7.1 282 12.5 101240 36
2010-05-28 06:57:56 51°17.882 2°53.133 6.4 254 12.5 101240 36
2010-05-28 06:58:01 51°17.889 2°53.141 6 282 12.5 101250 35
2010-05-28 06:58:07 51°17.897 2°53.152 6.7 253 12.5 101250 35
2010-05-28 06:58:11 51°17.902 2°53.158 6.5 283 12.5 101250 37
2010-05-28 06:58:16 51°17.909 2°53.165 7 251 12.5 101250 37
2010-05-28 06:58:21 51°17.915 2°53.172 6.9 285 12.6 101250 35
2010-05-28 06:58:27 51°17.922 2°53.179 6.5 252 12.6 101250 36
2010-05-28 06:58:31 51°17.928 2°53.182 6.7 279 12.6 101250 36
2010-05-28 06:58:36 51°17.933 2°53.187 6.8 250 12.6 101250 35
2010-05-28 06:58:41 51°17.938 2°53.19 7.2 280 12.6 101250 35
2010-05-28 06:58:46 51°17.943 2°53.192 6.6 247 12.6 101250 35
2010-05-28 06:58:51 51°17.948 2°53.194 6.8 284 12.6 101250 35
2010-05-28 06:58:56 51°17.952 2°53.195 7.7 249 12.6 101250 36
2010-05-28 06:59:01 51°17.955 2°53.196 8.4 280 12.6 101250 36
2010-05-28 06:59:07 51°17.958 2°53.196 7 248 12.6 101250 36
2010-05-28 06:59:11 51°17.96 2°53.196 7.3 285 12.6 101250 37
2010-05-28 06:59:16 51°17.962 2°53.196 7.9 252 12.5 101250 36
2010-05-28 06:59:21 51°17.962 2°53.196 6.7 279 12.5 101250 36
2010-05-28 06:59:26 51°17.963 2°53.195 7.1 252 12.6 101250 36
2010-05-28 06:59:31 51°17.963 2°53.195 6.8 279 12.6 101250 36
2010-05-28 06:59:36 51°17.962 2°53.194 7.3 249 12.6 101250 35
2010-05-28 06:59:40 51°17.962 2°53.193 6.1 278 12.6 101250 35
2010-05-28 06:59:46 51°17.962 2°53.193 6.4 251 12.6 101240 36
2010-05-28 06:59:51 51°17.962 2°53.193 6.2 285 12.6 101240 36
2010-05-28 06:59:56 51°17.962 2°53.192 6.4 248 12.6 101240 36
2010-05-28 07:00:01 51°17.962 2°53.192 6.4 285 12.6 101260 37
2010-05-28 07:00:06 51°17.961 2°53.191 6.6 250 12.6 101260 36
2010-05-28 07:00:11 51°17.961 2°53.19 7.2 279 12.6 101260 36
2010-05-28 07:00:16 51°17.961 2°53.19 6.4 248 12.6 101260 36
2010-05-28 07:00:21 51°17.96 2°53.189 5.6 284 12.6 101250 34
2010-05-28 07:00:27 51°17.96 2°53.188 6.8 247 12.6 101250 34
2010-05-28 07:00:31 51°17.959 2°53.188 6.3 284 12.6 101250 37
2010-05-28 07:00:36 51°17.959 2°53.186 6.1 244 12.6 101250 37
2010-05-28 07:00:41 51°17.958 2°53.186 5.9 284 12.6 101250 36
2010-05-28 07:00:47 51°17.958 2°53.185 6.6 247 12.6 101260 36
2010-05-28 07:00:51 51°17.957 2°53.184 5.7 283 12.6 101260 36
2010-05-28 07:00:56 51°17.956 2°53.183 6.1 247 12.6 101260 36
2010-05-28 07:01:01 51°17.956 2°53.182 6.4 285 12.6 101250 35
2010-05-28 07:01:06 51°17.955 2°53.181 6.5 249 12.6 101250 35
2010-05-28 07:01:11 51°17.954 2°53.18 6.4 284 12.6 101250 36
2010-05-28 07:01:16 51°17.954 2°53.179 5.5 248 12.6 101250 36
2010-05-28 07:01:21 51°17.953 2°53.178 6.7 283 12.6 101250 36
2010-05-28 07:01:26 51°17.952 2°53.178 6.4 247 12.6 101250 36
2010-05-28 07:01:31 51°17.951 2°53.177 6.8 284 12.6 101250 36
2010-05-28 07:01:36 51°17.95 2°53.176 6.2 244 12.6 101260 37
2010-05-28 07:01:41 51°17.95 2°53.175 6 283 12.6 101260 37
2010-05-28 07:01:46 51°17.949 2°53.174 6.4 243 12.6 101250 35
2010-05-28 07:01:51 51°17.948 2°53.173 5.8 284 12.6 101250 35
2010-05-28 07:01:56 51°17.947 2°53.172 5.8 242 12.6 101250 37
2010-05-28 07:02:01 51°17.946 2°53.171 6.1 286 12.6 101250 37
2010-05-28 07:02:07 51°17.945 2°53.17 6 244 12.6 101250 37
2010-05-28 07:02:11 51°17.945 2°53.17 5.3 279 12.6 101250 37
2010-05-28 07:02:16 51°17.944 2°53.169 5.1 244 12.6 101250 37
2010-05-28 07:02:21 51°17.943 2°53.168 5.3 278 12.6 101250 37
2010-05-28 07:02:27 51°17.941 2°53.167 6.3 248 12.6 101250 37
2010-05-28 07:02:31 51°17.941 2°53.166 6.4 281 12.6 101250 34
2010-05-28 07:02:36 51°17.94 2°53.165 6.5 249 12.6 101250 34
2010-05-28 07:02:41 51°17.938 2°53.165 6 279 12.6 101250 36
2010-05-28 07:02:47 51°17.937 2°53.164 5.8 250 12.6 101250 36
2010-05-28 07:02:51 51°17.936 2°53.163 6 280 12.6 101250 36
2010-05-28 07:02:56 51°17.935 2°53.163 6 247 12.6 101250 36
2010-05-28 07:03:01 51°17.934 2°53.162 5.7 278 12.6 101250 34
2010-05-28 07:03:06 51°17.933 2°53.161 5.7 249 12.6 101250 34
2010-05-28 07:03:11 51°17.932 2°53.16 6 286 12.6 101250 37
2010-05-28 07:03:16 51°17.93 2°53.16 5.6 250 12.6 101250 35
2010-05-28 07:03:21 51°17.929 2°53.159 5.9 278 12.6 101250 35
2010-05-28 07:03:26 51°17.928 2°53.159 5.7 249 12.6 101250 35
2010-05-28 07:03:31 51°17.927 2°53.158 6 279 12.6 101250 37
2010-05-28 07:03:36 51°17.926 2°53.157 6.2 246 12.6 101260 37
2010-05-28 07:03:41 51°17.925 2°53.157 5.7 279 12.6 101260 37
2010-05-28 07:03:47 51°17.923 2°53.156 6.3 246 12.6 101260 37
2010-05-28 07:03:51 51°17.922 2°53.156 5.7 284 12.6 101260 37
2010-05-28 07:03:56 51°17.921 2°53.155 6.3 250 12.6 101250 36
2010-05-28 07:04:01 51°17.92 2°53.154 5.7 284 12.6 101250 36
2010-05-28 07:04:07 51°17.918 2°53.153 6 248 12.6 101250 36
2010-05-28 07:04:11 51°17.917 2°53.153 6 279 12.6 101250 38
2010-05-28 07:04:16 51°17.916 2°53.152 5.6 251 12.6 101250 38
2010-05-28 07:04:21 51°17.915 2°53.151 5.6 283 12.7 101260 36
2010-05-28 07:04:27 51°17.913 2°53.151 6 251 12.7 101260 36
2010-05-28 07:04:31 51°17.912 2°53.15 5.6 286 12.6 101250 36
2010-05-28 07:04:36 51°17.911 2°53.149 5.9 249 12.6 101250 36
2010-05-28 07:04:41 51°17.909 2°53.148 5.7 284 12.6 101260 36
2010-05-28 07:04:46 51°17.908 2°53.148 5.1 248 12.7 101260 37
2010-05-28 07:04:51 51°17.907 2°53.147 4.9 278 12.7 101260 37
2010-05-28 07:04:56 51°17.906 2°53.147 5.4 250 12.6 101260 36
2010-05-28 07:05:01 51°17.904 2°53.146 5.2 283 12.6 101260 36
2010-05-28 07:05:06 51°17.903 2°53.145 6.2 249 12.6 101260 36
2010-05-28 07:05:11 51°17.901 2°53.145 5.8 283 12.6 101260 36
2010-05-28 07:05:16 51°17.9 2°53.144 6.7 251 12.7 101260 37
2010-05-28 07:05:21 51°17.899 2°53.143 6.6 280 12.7 101260 37
2010-05-28 07:05:26 51°17.897 2°53.143 6 248 12.7 101260 37
2010-05-28 07:05:31 51°17.896 2°53.142 6.8 280 12.7 101260 36
2010-05-28 07:05:36 51°17.896 2°53.142 6.6 252 12.7 101260 37
2010-05-28 07:05:41 51°17.895 2°53.141 6.8 281 12.7 101260 37
2010-05-28 07:05:46 51°17.895 2°53.141 5.8 251 12.7 101260 37
2010-05-28 07:05:51 51°17.895 2°53.14 6.2 279 12.7 101250 36
2010-05-28 07:05:56 51°17.895 2°53.139 5.6 251 12.7 101260 36
2010-05-28 07:06:01 51°17.896 2°53.138 5.8 285 12.7 101260 36
2010-05-28 07:06:06 51°17.897 2°53.138 7.2 255 12.7 101250 37
2010-05-28 07:06:11 51°17.898 2°53.138 7.3 286 12.7 101250 37
2010-05-28 07:06:16 51°17.9 2°53.139 6.5 258 12.7 101250 37
2010-05-28 07:06:21 51°17.903 2°53.14 5.4 278 12.7 101250 37
2010-05-28 07:06:26 51°17.906 2°53.142 4.2 264 12.7 101260 38
2010-05-28 07:06:31 51°17.91 2°53.146 4.1 284 12.7 101260 38
2010-05-28 07:06:36 51°17.914 2°53.151 4 268 12.7 101260 38
2010-05-28 07:06:41 51°17.917 2°53.158 5 280 12.7 101260 38
2010-05-28 07:06:46 51°17.92 2°53.166 5.1 42 12.7 101260 36
2010-05-28 07:06:51 51°17.922 2°53.176 4.4 81 12.7 101260 36
2010-05-28 07:06:56 51°17.923 2°53.186 3.5 39 12.7 101260 36
2010-05-28 07:07:01 51°17.923 2°53.198 3.4 80 12.7 101260 36
2010-05-28 07:07:06 51°17.922 2°53.21 2.5 38 12.6 101260 37
2010-05-28 07:07:11 51°17.921 2°53.223 2 83 12.6 101260 37
2010-05-28 07:07:16 51°17.918 2°53.238 0.5 34 12.6 101260 37
2010-05-28 07:07:21 51°17.914 2°53.253 1.5 83 12.6 101270 35
2010-05-28 07:07:26 51°17.911 2°53.269 0.2 34 12.6 101270 35
2010-05-28 07:07:31 51°17.907 2°53.285 0.1 78 12.6 101270 35
2010-05-28 07:07:36 51°17.904 2°53.303 1.2 32 12.5 101270 35
2010-05-28 07:07:41 51°17.9 2°53.321 1.6 80 12.5 101270 35
2010-05-28 07:07:46 51°17.896 2°53.34 1.2 36 12.5 101270 36
2010-05-28 07:07:51 51°17.892 2°53.358 0.9 -999 12.5 101270 36
2010-05-28 07:07:56 51°17.889 2°53.376 0.7 37 12.5 101270 36
2010-05-28 07:08:01 51°17.885 2°53.395 0.3 78 12.6 101270 38
2010-05-28 07:08:06 51°17.882 2°53.413 2.1 39 12.6 101270 38
2010-05-28 07:08:11 51°17.878 2°53.431 1.6 76 12.6 101270 37
2010-05-28 07:08:16 51°17.875 2°53.448 0.6 35 12.6 101270 35
2010-05-28 07:08:21 51°17.871 2°53.465 2 78 12.6 101270 35
2010-05-28 07:08:26 51°17.868 2°53.482 1.5 33 12.6 101270 35
2010-05-28 07:08:31 51°17.865 2°53.499 1.9 74 12.6 101270 36
2010-05-28 07:08:36 51°17.862 2°53.516 1.3 32 12.6 101270 36
2010-05-28 07:08:40 51°17.859 2°53.529 0.8 74 12.6 101270 36
2010-05-28 07:08:46 51°17.855 2°53.548 2.8 31 12.7 101270 36
2010-05-28 07:08:51 51°17.852 2°53.564 1.9 -999 12.7 101270 36
2010-05-28 07:08:56 51°17.849 2°53.579 2.2 31 12.7 101270 36
2010-05-28 07:09:01 51°17.845 2°53.594 2.9 82 12.7 101270 37
2010-05-28 07:09:06 51°17.843 2°53.608 1.9 31 12.8 101270 38
2010-05-28 07:09:11 51°17.84 2°53.621 2 79 12.8 101270 38
2010-05-28 07:09:16 51°17.839 2°53.634 2.9 30 12.8 101270 35
2010-05-28 07:09:21 51°17.838 2°53.645 3.9 82 12.8 101270 35
2010-05-28 07:09:26 51°17.838 2°53.656 3.9 35 12.8 101270 37
2010-05-28 07:09:31 51°17.838 2°53.666 4 75 12.8 101270 37
2010-05-28 07:09:36 51°17.838 2°53.675 4.2 34 12.9 101270 35
2010-05-28 07:09:41 51°17.839 2°53.684 3.9 76 12.9 101270 35
2010-05-28 07:09:46 51°17.84 2°53.691 3.7 32 12.8 101270 35
2010-05-28 07:09:51 51°17.841 2°53.697 4.6 86 12.8 101270 35
2010-05-28 07:09:56 51°17.842 2°53.703 4.5 268 12.8 101270 34
2010-05-28 07:10:01 51°17.843 2°53.707 5.3 290 12.8 101270 34
2010-05-28 07:10:06 51°17.843 2°53.711 5.1 269 12.8 101270 34
2010-05-28 07:10:11 51°17.843 2°53.712 5.6 284 12.8 101260 37
2010-05-28 07:10:16 51°17.842 2°53.713 5.5 270 12.8 101260 36
2010-05-28 07:10:21 51°17.841 2°53.713 5.5 284 12.8 101260 36
2010-05-28 07:10:26 51°17.84 2°53.714 5.6 270 12.8 101260 36
2010-05-28 07:10:31 51°17.839 2°53.714 5.4 280 12.8 101270 36
2010-05-28 07:10:36 51°17.838 2°53.714 5.8 37 12.7 101260 37
2010-05-28 07:10:41 51°17.837 2°53.714 4.8 280 12.7 101260 37
2010-05-28 07:10:46 51°17.836 2°53.714 4.7 267 12.7 101260 35
2010-05-28 07:10:51 51°17.835 2°53.714 4.9 267 12.7 101260 35
2010-05-28 07:10:56 51°17.834 2°53.714 4.8 266 12.7 101260 34
2010-05-28 07:11:01 51°17.832 2°53.714 4.6 284 12.7 101260 34
2010-05-28 07:11:06 51°17.831 2°53.713 4.2 266 12.7 101260 36
2010-05-28 07:11:11 51°17.83 2°53.714 4.8 283 12.7 101260 36
2010-05-28 07:11:16 51°17.829 2°53.713 4.3 267 12.6 101260 38
2010-05-28 07:11:21 51°17.828 2°53.713 4.9 282 12.6 101260 38
2010-05-28 07:11:26 51°17.827 2°53.712 4.9 265 12.7 101260 38
2010-05-28 07:11:31 51°17.826 2°53.712 4.9 287 12.7 101260 38
2010-05-28 07:11:36 51°17.825 2°53.711 4.6 263 12.6 101260 38
2010-05-28 07:11:41 51°17.824 2°53.711 4.5 285 12.6 101260 38
2010-05-28 07:11:46 51°17.822 2°53.711 3.7 263 12.6 101270 37
2010-05-28 07:11:51 51°17.821 2°53.711 4.5 -999 12.6 101270 37
2010-05-28 07:11:56 51°17.82 2°53.71 4.1 264 12.5 101260 36
2010-05-28 07:12:01 51°17.819 2°53.71 4.3 285 12.5 101260 36
2010-05-28 07:12:06 51°17.817 2°53.709 3.6 262 12.5 101270 36
2010-05-28 07:12:11 51°17.816 2°53.709 5 283 12.5 101270 36
2010-05-28 07:12:16 51°17.815 2°53.708 4.7 263 12.5 101270 37
2010-05-28 07:12:21 51°17.814 2°53.708 4.1 285 12.5 101270 37
2010-05-28 07:12:26 51°17.814 2°53.707 4.7 263 12.5 101270 36
2010-05-28 07:12:31 51°17.813 2°53.707 4.8 285 12.5 101270 36
2010-05-28 07:12:36 51°17.813 2°53.707 5.1 259 12.5 101260 36
2010-05-28 07:12:41 51°17.813 2°53.707 6.8 281 12.5 101260 36
2010-05-28 07:12:46 51°17.814 2°53.707 6.7 258 12.5 101270 36
2010-05-28 07:12:51 51°17.814 2°53.708 7.1 257 12.5 101270 36
2010-05-28 07:12:56 51°17.814 2°53.707 6.5 258 12.5 101260 35
2010-05-28 07:13:01 51°17.814 2°53.707 7 279 12.5 101260 35
2010-05-28 07:13:06 51°17.815 2°53.707 6.7 259 12.4 101270 36
2010-05-28 07:13:11 51°17.815 2°53.706 7.1 276 12.4 101270 36
2010-05-28 07:13:16 51°17.815 2°53.706 6.9 258 12.5 101260 37
2010-05-28 07:13:21 51°17.815 2°53.706 6.2 280 12.5 101260 37
2010-05-28 07:13:26 51°17.816 2°53.705 6.9 256 12.5 101260 37
2010-05-28 07:13:31 51°17.816 2°53.705 6.7 279 12.5 101260 37
2010-05-28 07:13:36 51°17.816 2°53.705 5.6 261 12.5 101260 37
2010-05-28 07:13:41 51°17.816 2°53.704 6.9 284 12.5 101260 34
2010-05-28 07:13:46 51°17.816 2°53.704 6.8 252 12.5 101260 34
2010-05-28 07:13:51 51°17.816 2°53.704 5.4 277 12.5 101270 36
2010-05-28 07:13:56 51°17.816 2°53.703 6.2 257 12.5 101270 36
2010-05-28 07:14:01 51°17.816 2°53.703 7.4 286 12.5 101270 37
2010-05-28 07:14:06 51°17.816 2°53.703 6.6 257 12.5 101260 37
2010-05-28 07:14:11 51°17.815 2°53.702 5.9 284 12.5 101260 37
2010-05-28 07:14:16 51°17.815 2°53.701 5.8 250 12.6 101270 38
2010-05-28 07:14:21 51°17.816 2°53.701 5.6 285 12.6 101270 38
2010-05-28 07:14:26 51°17.816 2°53.701 7.2 254 12.6 101270 38
2010-05-28 07:14:31 51°17.816 2°53.701 7 279 12.6 101270 38
2010-05-28 07:14:37 51°17.816 2°53.701 6.9 255 12.6 101270 37
2010-05-28 07:14:41 51°17.816 2°53.7 6.7 285 12.6 101270 37
2010-05-28 07:14:46 51°17.816 2°53.7 6.3 253 12.6 101270 37
2010-05-28 07:14:51 51°17.816 2°53.7 7.1 284 12.7 101270 38
2010-05-28 07:14:57 51°17.817 2°53.7 7.2 256 12.6 101270 36
2010-05-28 07:15:01 51°17.817 2°53.699 6.1 280 12.6 101270 36
2010-05-28 07:15:06 51°17.817 2°53.699 6.3 254 12.6 101270 37
2010-05-28 07:15:12 51°17.817 2°53.699 6 280 12.6 101270 37
2010-05-28 07:15:16 51°17.817 2°53.698 5.9 254 12.6 101270 37
2010-05-28 07:15:21 51°17.817 2°53.698 7.6 283 12.6 101270 36
2010-05-28 07:15:26 51°17.818 2°53.697 6.4 255 12.6 101270 36
2010-05-28 07:15:31 51°17.818 2°53.697 7.3 284 12.6 101270 37
2010-05-28 07:15:37 51°17.818 2°53.697 6.4 255 12.6 101270 37
2010-05-28 07:15:41 51°17.818 2°53.697 6.8 284 12.6 101270 36
2010-05-28 07:15:46 51°17.818 2°53.697 7 257 12.6 101270 36
2010-05-28 07:15:51 51°17.819 2°53.696 6.5 254 12.6 101270 36
2010-05-28 07:15:56 51°17.819 2°53.696 5.9 254 12.6 101270 37
2010-05-28 07:16:01 51°17.819 2°53.695 5.8 280 12.6 101270 37
2010-05-28 07:16:06 51°17.819 2°53.695 6.8 252 12.6 101270 36
2010-05-28 07:16:11 51°17.819 2°53.694 6.4 281 12.6 101270 36
2010-05-28 07:16:16 51°17.82 2°53.694 6.8 259 12.7 101270 36
2010-05-28 07:16:21 51°17.82 2°53.694 6.4 284 12.7 101270 36
2010-05-28 07:16:26 51°17.82 2°53.694 5.2 261 12.7 101270 36
2010-05-28 07:16:31 51°17.82 2°53.694 7.6 281 12.7 101270 36
2010-05-28 07:16:36 51°17.82 2°53.694 6.8 257 12.7 101280 38
2010-05-28 07:16:41 51°17.82 2°53.693 7.8 278 12.7 101280 38
2010-05-28 07:16:46 51°17.82 2°53.693 6.6 256 12.7 101280 38
2010-05-28 07:16:51 51°17.821 2°53.693 5.8 284 12.8 101270 37
2010-05-28 07:16:56 51°17.821 2°53.692 6.3 256 12.7 101270 36
2010-05-28 07:17:01 51°17.821 2°53.692 6 280 12.7 101270 36
2010-05-28 07:17:06 51°17.821 2°53.692 6.2 255 12.7 101270 37
2010-05-28 07:17:11 51°17.821 2°53.692 6.4 282 12.7 101270 37
2010-05-28 07:17:16 51°17.821 2°53.692 6.7 255 12.7 101270 35
2010-05-28 07:17:21 51°17.822 2°53.692 6 283 12.7 101270 35
2010-05-28 07:17:26 51°17.822 2°53.691 6.9 256 12.7 101270 36
2010-05-28 07:17:31 51°17.822 2°53.691 6.6 285 12.7 101270 36
2010-05-28 07:17:36 51°17.822 2°53.692 6.5 256 12.7 101270 36
2010-05-28 07:17:41 51°17.822 2°53.692 7.4 282 12.7 101270 36
2010-05-28 07:17:46 51°17.822 2°53.692 7.2 256 12.8 101270 37
2010-05-28 07:17:51 51°17.822 2°53.691 7.1 -999 12.8 101270 37
2010-05-28 07:17:56 51°17.822 2°53.691 6 254 12.8 101270 37
2010-05-28 07:18:01 51°17.822 2°53.691 6.7 279 12.8 101270 35
2010-05-28 07:18:06 51°17.821 2°53.691 6.6 253 12.8 101280 37
2010-05-28 07:18:11 51°17.821 2°53.691 7.4 278 12.8 101280 37
2010-05-28 07:18:16 51°17.821 2°53.691 6.8 256 12.8 101280 37
2010-05-28 07:18:21 51°17.821 2°53.691 6.5 279 12.8 101280 37
2010-05-28 07:18:26 51°17.821 2°53.691 7.6 257 12.8 101270 35
2010-05-28 07:18:31 51°17.821 2°53.691 6.8 282 12.8 101270 35
2010-05-28 07:18:36 51°17.821 2°53.691 7.5 258 12.8 101270 35
2010-05-28 07:18:41 51°17.821 2°53.691 6.4 284 12.8 101270 35
2010-05-28 07:18:46 51°17.821 2°53.691 7.4 259 12.8 101280 36
2010-05-28 07:18:51 51°17.821 2°53.691 6.8 284 12.8 101280 36
2010-05-28 07:18:56 51°17.821 2°53.691 7.3 259 12.8 101280 35
2010-05-28 07:19:01 51°17.821 2°53.691 6.8 284 12.8 101280 35
2010-05-28 07:19:06 51°17.821 2°53.691 7.1 258 12.8 101280 36
2010-05-28 07:19:11 51°17.821 2°53.691 5.8 281 12.8 101280 36
2010-05-28 07:19:16 51°17.821 2°53.691 6.8 251 12.8 101280 36
2010-05-28 07:19:21 51°17.821 2°53.691 6.3 279 12.8 101280 36
2010-05-28 07:19:26 51°17.821 2°53.691 6.3 259 12.8 101280 36
2010-05-28 07:19:31 51°17.822 2°53.691 6.6 278 12.8 101280 36
2010-05-28 07:19:36 51°17.822 2°53.691 6.8 253 12.8 101270 35
2010-05-28 07:19:41 51°17.822 2°53.691 7.1 285 12.8 101270 35
2010-05-28 07:19:46 51°17.822 2°53.692 7 261 12.8 101280 35
2010-05-28 07:19:51 51°17.822 2°53.691 5.2 -999 12.8 101280 35
2010-05-28 07:19:56 51°17.822 2°53.691 6 260 12.8 101280 35
2010-05-28 07:20:01 51°17.823 2°53.691 6.8 279 12.9 101280 37
2010-05-28 07:20:06 51°17.823 2°53.691 6.9 258 12.8 101270 35
2010-05-28 07:20:11 51°17.823 2°53.691 6.4 279 12.8 101270 35
2010-05-28 07:20:16 51°17.823 2°53.691 6.5 254 12.8 101280 37
2010-05-28 07:20:21 51°17.823 2°53.691 6.7 284 12.8 101280 37
2010-05-28 07:20:26 51°17.823 2°53.692 6.4 258 12.8 101270 35
2010-05-28 07:20:31 51°17.823 2°53.692 7.2 285 12.8 101270 35
2010-05-28 07:20:36 51°17.823 2°53.692 6.8 258 12.8 101280 37
2010-05-28 07:20:41 51°17.823 2°53.691 7.5 286 12.8 101280 37
2010-05-28 07:20:46 51°17.823 2°53.691 7 258 12.8 101280 37
2010-05-28 07:20:51 51°17.823 2°53.691 7.3 280 12.8 101280 37
2010-05-28 07:20:56 51°17.823 2°53.691 5.9 257 12.8 101280 36
2010-05-28 07:21:01 51°17.823 2°53.691 5.5 279 12.8 101280 36
2010-05-28 07:21:06 51°17.823 2°53.691 6.6 255 12.8 101270 37
2010-05-28 07:21:11 51°17.823 2°53.691 6.1 278 12.8 101270 37
2010-05-28 07:21:16 51°17.823 2°53.691 7 259 12.8 101270 36
2010-05-28 07:21:21 51°17.823 2°53.691 6.6 279 12.8 101270 36
2010-05-28 07:21:26 51°17.823 2°53.691 6.2 261 12.8 101280 35
2010-05-28 07:21:31 51°17.823 2°53.691 7 285 12.8 101280 35
2010-05-28 07:21:36 51°17.823 2°53.69 5.8 259 12.8 101280 36
2010-05-28 07:21:41 51°17.823 2°53.69 6.6 280 12.8 101280 36
2010-05-28 07:21:46 51°17.823 2°53.69 6.3 259 12.8 101280 36
2010-05-28 07:21:51 51°17.823 2°53.691 6.2 280 12.8 101280 36
2010-05-28 07:21:56 51°17.823 2°53.691 8.6 258 12.8 101280 36
2010-05-28 07:22:01 51°17.823 2°53.691 6.8 280 12.8 101280 36
2010-05-28 07:22:06 51°17.823 2°53.69 7.2 259 12.8 101280 35
2010-05-28 07:22:11 51°17.823 2°53.69 8 282 12.8 101280 35
2010-05-28 07:22:16 51°17.823 2°53.69 7.9 256 12.8 101280 35
2010-05-28 07:22:21 51°17.823 2°53.69 6.9 284 12.8 101280 37
2010-05-28 07:22:26 51°17.823 2°53.69 7.3 257 12.7 101280 36
2010-05-28 07:22:31 51°17.823 2°53.69 9 280 12.7 101280 36
2010-05-28 07:22:36 51°17.823 2°53.69 7.6 258 12.7 101280 36
2010-05-28 07:22:41 51°17.823 2°53.69 7.8 280 12.7 101280 36
2010-05-28 07:22:45 51°17.823 2°53.69 8 259 12.7 101280 36
2010-05-28 07:22:52 51°17.823 2°53.69 8.3 284 12.7 101280 36
2010-05-28 07:22:57 51°17.823 2°53.69 8.5 258 12.7 101280 36
2010-05-28 07:23:01 51°17.823 2°53.69 7 283 12.7 101280 37
2010-05-28 07:23:07 51°17.823 2°53.69 6.2 260 12.7 101280 36
2010-05-28 07:23:12 51°17.823 2°53.69 7.1 281 12.7 101280 36
2010-05-28 07:23:17 51°17.823 2°53.69 7.8 260 12.7 101280 36
2010-05-28 07:23:21 51°17.823 2°53.69 7.9 282 12.7 101280 35
2010-05-28 07:23:26 51°17.823 2°53.69 6.8 257 12.7 101280 35
2010-05-28 07:23:31 51°17.823 2°53.69 7 283 12.7 101280 37
2010-05-28 07:23:37 51°17.823 2°53.69 6.9 255 12.7 101280 37
2010-05-28 07:23:42 51°17.823 2°53.69 7.5 285 12.7 101280 36
2010-05-28 07:23:46 51°17.823 2°53.69 7.5 258 12.7 101280 36
2010-05-28 07:23:51 51°17.823 2°53.69 8.3 255 12.7 101280 37
2010-05-28 07:23:57 51°17.823 2°53.69 7.4 256 12.7 101290 35
2010-05-28 07:24:02 51°17.823 2°53.69 9.2 282 12.7 101290 35
2010-05-28 07:24:06 51°17.823 2°53.69 8 256 12.7 101280 36
2010-05-28 07:24:11 51°17.824 2°53.69 8.2 283 12.7 101280 36
2010-05-28 07:24:17 51°17.824 2°53.69 8.8 258 12.7 101280 36
2010-05-28 07:24:21 51°17.824 2°53.69 8.3 280 12.7 101280 36
2010-05-28 07:24:26 51°17.824 2°53.69 8.7 257 12.7 101280 35
2010-05-28 07:24:31 51°17.824 2°53.69 9.2 285 12.7 101280 35
2010-05-28 07:24:36 51°17.824 2°53.689 8.7 259 12.7 101280 36
2010-05-28 07:24:41 51°17.824 2°53.689 7.7 281 12.7 101280 36
2010-05-28 07:24:46 51°17.824 2°53.69 8.5 257 12.7 101280 36
2010-05-28 07:24:50 51°17.823 2°53.69 8 284 12.7 101280 36
2010-05-28 07:24:56 51°17.823 2°53.69 7.6 256 12.7 101280 36
2010-05-28 07:25:01 51°17.823 2°53.69 7.3 284 12.7 101280 36
2010-05-28 07:25:06 51°17.823 2°53.69 7.3 257 12.7 101280 36
2010-05-28 07:25:11 51°17.823 2°53.69 8.2 281 12.7 101280 36
2010-05-28 07:25:16 51°17.823 2°53.69 7.7 257 12.7 101280 36
2010-05-28 07:25:21 51°17.823 2°53.69 7.9 283 12.7 101280 36
2010-05-28 07:25:26 51°17.823 2°53.69 8.2 258 12.7 101280 36
2010-05-28 07:25:31 51°17.823 2°53.69 7.7 283 12.7 101290 35
2010-05-28 07:25:36 51°17.823 2°53.69 7.8 258 12.7 101290 35
2010-05-28 07:25:41 51°17.823 2°53.69 7.3 279 12.7 101290 35
2010-05-28 07:25:46 51°17.823 2°53.69 7 254 12.7 101290 35
2010-05-28 07:25:51 51°17.823 2°53.69 7.4 281 12.7 101280 37
2010-05-28 07:25:56 51°17.823 2°53.69 7.7 258 12.7 101290 36
2010-05-28 07:26:01 51°17.823 2°53.69 7.4 280 12.7 101290 36
2010-05-28 07:26:06 51°17.823 2°53.69 8.3 257 12.7 101290 36
2010-05-28 07:26:11 51°17.823 2°53.69 7.9 284 12.7 101290 37
2010-05-28 07:26:16 51°17.823 2°53.69 7.6 259 12.7 101290 37
2010-05-28 07:26:21 51°17.823 2°53.69 6.5 279 12.7 101290 37
2010-05-28 07:26:26 51°17.823 2°53.691 6.7 257 12.7 101280 37
2010-05-28 07:26:31 51°17.823 2°53.69 6.2 279 12.7 101280 37
2010-05-28 07:26:36 51°17.823 2°53.69 5.7 261 12.7 101290 36
2010-05-28 07:26:42 51°17.823 2°53.69 5.2 284 12.7 101290 36
2010-05-28 07:26:46 51°17.823 2°53.69 6.5 260 12.7 101290 37
2010-05-28 07:26:50 51°17.823 2°53.69 6.1 280 12.7 101290 37
2010-05-28 07:26:56 51°17.823 2°53.689 6.6 258 12.7 101290 34
2010-05-28 07:27:01 51°17.823 2°53.689 6 279 12.7 101290 34
2010-05-28 07:27:06 51°17.823 2°53.689 6.7 260 12.7 101290 37
2010-05-28 07:27:12 51°17.823 2°53.69 6 284 12.7 101290 37
2010-05-28 07:27:16 51°17.823 2°53.69 6.8 257 12.7 101290 37
2010-05-28 07:27:21 51°17.823 2°53.69 6.2 281 12.7 101280 37
2010-05-28 07:27:26 51°17.823 2°53.689 5.1 264 12.7 101290 36
2010-05-28 07:27:31 51°17.823 2°53.689 5.9 286 12.7 101290 36
2010-05-28 07:27:36 51°17.823 2°53.689 4 263 12.7 101290 36
2010-05-28 07:27:41 51°17.823 2°53.689 7.4 283 12.8 101290 38
2010-05-28 07:27:45 51°17.823 2°53.689 6.6 261 12.8 101290 38
2010-05-28 07:27:51 51°17.823 2°53.69 6.8 278 12.8 101290 38
2010-05-28 07:27:56 51°17.823 2°53.689 7.2 263 12.8 101290 38
2010-05-28 07:28:01 51°17.823 2°53.69 6 283 12.8 101290 38
2010-05-28 07:28:07 51°17.823 2°53.69 6.8 261 12.8 101290 38
2010-05-28 07:28:11 51°17.823 2°53.69 7.2 278 12.8 101290 38
2010-05-28 07:28:16 51°17.823 2°53.689 7 259 12.8 101300 36
2010-05-28 07:28:22 51°17.824 2°53.689 8.3 285 12.8 101300 36
2010-05-28 07:28:27 51°17.824 2°53.689 6.4 262 12.8 101300 36
2010-05-28 07:28:31 51°17.823 2°53.689 7.7 283 12.7 101290 36
2010-05-28 07:28:36 51°17.823 2°53.689 6.8 260 12.7 101300 36
2010-05-28 07:28:42 51°17.823 2°53.689 6.8 279 12.7 101300 36
2010-05-28 07:28:47 51°17.823 2°53.689 7.5 262 12.7 101300 36
2010-05-28 07:28:51 51°17.823 2°53.69 5.5 262 12.7 101290 37
2010-05-28 07:28:56 51°17.823 2°53.69 5.5 262 12.7 101290 37
2010-05-28 07:29:02 51°17.823 2°53.69 6.6 285 12.7 101290 36
2010-05-28 07:29:07 51°17.823 2°53.69 6.5 260 12.7 101290 36
2010-05-28 07:29:11 51°17.823 2°53.69 7.1 283 12.7 101290 36
2010-05-28 07:29:17 51°17.823 2°53.69 8.1 258 12.7 101290 36
2010-05-28 07:29:21 51°17.823 2°53.69 7.9 281 12.6 101300 37
2010-05-28 07:29:27 51°17.823 2°53.69 7.7 258 12.6 101290 37
2010-05-28 07:29:31 51°17.823 2°53.69 6 282 12.6 101290 37
2010-05-28 07:29:36 51°17.823 2°53.69 8.8 258 12.7 101290 36
2010-05-28 07:29:41 51°17.823 2°53.69 7.3 285 12.7 101290 36
2010-05-28 07:29:47 51°17.823 2°53.69 9.7 258 12.6 101300 36
2010-05-28 07:29:51 51°17.823 2°53.69 8.7 284 12.6 101300 36
2010-05-28 07:29:56 51°17.824 2°53.69 8.3 257 12.6 101300 36
2010-05-28 07:30:01 51°17.824 2°53.689 7.8 286 12.6 101300 36
2010-05-28 07:30:07 51°17.824 2°53.689 7.5 262 12.6 101300 36
2010-05-28 07:30:11 51°17.824 2°53.689 7.6 284 12.6 101290 36
2010-05-28 07:30:16 51°17.824 2°53.689 8.7 258 12.6 101290 36
2010-05-28 07:30:22 51°17.824 2°53.689 7 279 12.6 101290 36
2010-05-28 07:30:26 51°17.824 2°53.689 7.3 260 12.6 101290 36
2010-05-28 07:30:31 51°17.824 2°53.689 6.6 281 12.6 101290 36
2010-05-28 07:30:37 51°17.824 2°53.689 6.2 259 12.6 101300 37
2010-05-28 07:30:42 51°17.824 2°53.689 7.7 279 12.6 101300 37
2010-05-28 07:30:47 51°17.825 2°53.689 7.6 258 12.6 101300 37
2010-05-28 07:30:51 51°17.825 2°53.689 6.6 261 12.6 101290 36
2010-05-28 07:30:56 51°17.825 2°53.689 6 262 12.6 101290 36
2010-05-28 07:31:02 51°17.824 2°53.69 8.1 284 12.6 101290 36
2010-05-28 07:31:07 51°17.825 2°53.689 7.1 260 12.6 101290 36
2010-05-28 07:31:11 51°17.825 2°53.69 7 285 12.6 101290 36
2010-05-28 07:31:16 51°17.825 2°53.69 6.6 260 12.6 101290 36
2010-05-28 07:31:22 51°17.825 2°53.69 6.6 280 12.6 101290 36
2010-05-28 07:31:27 51°17.825 2°53.689 8.6 258 12.6 101290 36
2010-05-28 07:31:31 51°17.825 2°53.689 6.9 279 12.6 101290 36
2010-05-28 07:31:37 51°17.825 2°53.689 8.1 261 12.6 101290 36
2010-05-28 07:31:41 51°17.825 2°53.689 6.8 279 12.6 101300 37
2010-05-28 07:31:47 51°17.825 2°53.689 7.7 261 12.5 101290 36
2010-05-28 07:31:51 51°17.825 2°53.689 6.9 -999 12.5 101290 36
2010-05-28 07:31:56 51°17.824 2°53.689 7.7 258 12.6 101290 36
2010-05-28 07:32:01 51°17.825 2°53.689 6.6 286 12.6 101290 36
2010-05-28 07:32:07 51°17.825 2°53.689 7.8 260 12.6 101290 36
2010-05-28 07:32:11 51°17.825 2°53.689 8.3 286 12.6 101290 36
2010-05-28 07:32:16 51°17.825 2°53.689 8.8 260 12.5 101300 34
2010-05-28 07:32:22 51°17.825 2°53.689 7.8 281 12.5 101300 34
2010-05-28 07:32:27 51°17.825 2°53.689 8 259 12.5 101300 34
2010-05-28 07:32:31 51°17.825 2°53.689 7 278 12.6 101300 36
2010-05-28 07:32:37 51°17.825 2°53.689 8.3 259 12.6 101300 36
2010-05-28 07:32:41 51°17.825 2°53.689 7.6 283 12.5 101290 36
2010-05-28 07:32:47 51°17.825 2°53.688 8.4 258 12.5 101290 36
2010-05-28 07:32:51 51°17.825 2°53.688 8.2 280 12.5 101290 37
2010-05-28 07:32:57 51°17.825 2°53.688 6.8 260 12.5 101290 37
2010-05-28 07:33:01 51°17.825 2°53.688 8.4 278 12.5 101300 36
2010-05-28 07:33:07 51°17.825 2°53.688 8.6 258 12.5 101300 36
2010-05-28 07:33:11 51°17.826 2°53.688 7.4 284 12.5 101290 36
2010-05-28 07:33:17 51°17.825 2°53.688 7.3 257 12.5 101300 37
2010-05-28 07:33:22 51°17.825 2°53.688 7.3 283 12.5 101300 37
2010-05-28 07:33:27 51°17.825 2°53.688 7.7 260 12.5 101300 37
2010-05-28 07:33:31 51°17.826 2°53.688 7.4 283 12.5 101300 37
2010-05-28 07:33:36 51°17.826 2°53.688 7.6 257 12.5 101300 37
2010-05-28 07:33:42 51°17.826 2°53.688 6.6 280 12.5 101300 36
2010-05-28 07:33:47 51°17.826 2°53.688 7.5 257 12.5 101300 36
2010-05-28 07:33:51 51°17.826 2°53.688 7.7 280 12.5 101300 36
2010-05-28 07:33:57 51°17.826 2°53.688 7.9 259 12.5 101300 36
2010-05-28 07:34:01 51°17.826 2°53.688 7 285 12.5 101300 36
2010-05-28 07:34:07 51°17.826 2°53.688 7.1 260 12.6 101300 36
2010-05-28 07:34:11 51°17.826 2°53.688 8 285 12.6 101300 36
2010-05-28 07:34:17 51°17.826 2°53.688 6.9 259 12.6 101300 36
2010-05-28 07:34:22 51°17.826 2°53.688 7.8 278 12.5 101300 36
2010-05-28 07:34:26 51°17.826 2°53.687 7.5 260 12.6 101300 36
2010-05-28 07:34:31 51°17.826 2°53.687 6.7 284 12.6 101300 36
2010-05-28 07:34:36 51°17.826 2°53.688 8 259 12.6 101300 36
2010-05-28 07:34:41 51°17.826 2°53.688 7.9 283 12.6 101300 36
2010-05-28 07:34:46 51°17.826 2°53.688 8.3 256 12.5 101290 36
2010-05-28 07:34:52 51°17.826 2°53.687 6.1 277 12.5 101290 36
2010-05-28 07:34:56 51°17.826 2°53.687 7.7 261 12.5 101300 35
2010-05-28 07:35:01 51°17.826 2°53.687 7.3 285 12.5 101300 35
2010-05-28 07:35:06 51°17.826 2°53.687 7.3 259 12.6 101300 37
2010-05-28 07:35:11 51°17.826 2°53.687 7.2 281 12.6 101300 37
2010-05-28 07:35:17 51°17.826 2°53.687 7 260 12.6 101300 36
2010-05-28 07:35:22 51°17.826 2°53.687 6.7 282 12.6 101300 36
2010-05-28 07:35:27 51°17.826 2°53.687 6 261 12.6 101300 36
2010-05-28 07:35:31 51°17.826 2°53.687 5.5 278 12.5 101300 36
2010-05-28 07:35:37 51°17.826 2°53.687 5.8 262 12.5 101300 36
2010-05-28 07:35:42 51°17.826 2°53.688 5.8 279 12.5 101310 35
2010-05-28 07:35:46 51°17.826 2°53.688 7.4 259 12.5 101300 35
2010-05-28 07:35:51 51°17.826 2°53.688 7.1 277 12.5 101300 35
2010-05-28 07:35:56 51°17.826 2°53.688 7.8 260 12.5 101300 35
2010-05-28 07:36:02 51°17.826 2°53.688 5.2 280 12.5 101300 35
2010-05-28 07:36:06 51°17.825 2°53.688 6.9 258 12.5 101300 37
2010-05-28 07:36:11 51°17.825 2°53.688 7.7 278 12.5 101300 37
2010-05-28 07:36:17 51°17.825 2°53.688 8 254 12.5 101300 37
2010-05-28 07:36:21 51°17.825 2°53.688 8.2 280 12.6 101310 36
2010-05-28 07:36:27 51°17.825 2°53.688 7.9 259 12.5 101310 36
2010-05-28 07:36:31 51°17.825 2°53.688 8 279 12.5 101310 36
2010-05-28 07:36:37 51°17.825 2°53.688 6.3 259 12.5 101310 36
2010-05-28 07:36:42 51°17.825 2°53.688 8 282 12.5 101310 36
2010-05-28 07:36:46 51°17.825 2°53.688 7.9 257 12.5 101300 36
2010-05-28 07:36:51 51°17.825 2°53.688 7.1 281 12.5 101300 36
2010-05-28 07:36:56 51°17.825 2°53.688 7.8 258 12.5 101300 36
2010-05-28 07:37:02 51°17.825 2°53.688 5.7 279 12.5 101300 36
2010-05-28 07:37:06 51°17.825 2°53.688 7 259 12.5 101300 36
2010-05-28 07:37:11 51°17.825 2°53.688 6.3 282 12.5 101300 37
2010-05-28 07:37:17 51°17.825 2°53.688 7 261 12.5 101300 37
2010-05-28 07:37:21 51°17.825 2°53.688 7.8 282 12.6 101310 36
2010-05-28 07:37:27 51°17.825 2°53.688 7.5 259 12.6 101310 36
2010-05-28 07:37:31 51°17.825 2°53.688 6.3 280 12.5 101310 37
2010-05-28 07:37:37 51°17.825 2°53.688 7.1 262 12.5 101310 34
2010-05-28 07:37:41 51°17.825 2°53.688 5 285 12.5 101310 34
2010-05-28 07:37:47 51°17.825 2°53.688 6.3 259 12.5 101310 34
2010-05-28 07:37:51 51°17.825 2°53.688 7.7 -999 12.5 101310 37
2010-05-28 07:37:56 51°17.825 2°53.688 7 259 12.5 101310 37
2010-05-28 07:38:01 51°17.825 2°53.688 7.6 282 12.6 101310 35
2010-05-28 07:38:06 51°17.825 2°53.688 7.5 259 12.6 101300 35
2010-05-28 07:38:11 51°17.826 2°53.688 5.2 281 12.6 101300 35
2010-05-28 07:38:16 51°17.826 2°53.688 6 257 12.6 101300 35
2010-05-28 07:38:21 51°17.826 2°53.688 6.2 279 12.6 101310 37
2010-05-28 07:38:26 51°17.826 2°53.688 5.8 263 12.5 101310 37
2010-05-28 07:38:31 51°17.826 2°53.688 5.6 282 12.5 101310 37
2010-05-28 07:38:36 51°17.826 2°53.688 6.5 261 12.6 101310 37
2010-05-28 07:38:41 51°17.826 2°53.688 6.3 284 12.6 101310 37
2010-05-28 07:38:46 51°17.826 2°53.688 6.9 258 12.6 101310 36
2010-05-28 07:38:51 51°17.826 2°53.688 7.5 279 12.6 101310 36
2010-05-28 07:38:56 51°17.826 2°53.688 7.1 257 12.5 101310 37
2010-05-28 07:39:01 51°17.826 2°53.688 5.2 280 12.5 101310 37
2010-05-28 07:39:06 51°17.826 2°53.687 6.7 256 12.5 101310 37
2010-05-28 07:39:11 51°17.826 2°53.687 6.7 285 12.5 101310 37
2010-05-28 07:39:16 51°17.826 2°53.687 7.1 257 12.5 101310 37
2010-05-28 07:39:21 51°17.826 2°53.687 7.3 284 12.5 101310 37
2010-05-28 07:39:26 51°17.826 2°53.687 7.3 257 12.5 101310 37
2010-05-28 07:39:31 51°17.826 2°53.687 7.4 285 12.5 101310 37
2010-05-28 07:39:36 51°17.826 2°53.687 6.5 257 12.5 101310 36
2010-05-28 07:39:41 51°17.826 2°53.687 7.5 279 12.5 101310 36
2010-05-28 07:39:46 51°17.826 2°53.687 7.6 258 12.6 101310 36
2010-05-28 07:39:51 51°17.826 2°53.687 7.2 257 12.6 101310 36
2010-05-28 07:39:56 51°17.825 2°53.687 6.3 259 12.5 101320 36
2010-05-28 07:40:01 51°17.825 2°53.687 7.3 280 12.5 101320 36
2010-05-28 07:40:06 51°17.825 2°53.687 5.7 262 12.6 101310 36
2010-05-28 07:40:11 51°17.825 2°53.687 6.4 283 12.6 101310 36
2010-05-28 07:40:16 51°17.825 2°53.687 6.4 260 12.6 101310 36
2010-05-28 07:40:21 51°17.826 2°53.687 5.1 279 12.5 101320 35
2010-05-28 07:40:26 51°17.826 2°53.687 4.2 264 12.6 101310 37
2010-05-28 07:40:31 51°17.826 2°53.687 6.4 281 12.6 101310 37
2010-05-28 07:40:36 51°17.825 2°53.687 7.4 258 12.6 101320 37
2010-05-28 07:40:41 51°17.825 2°53.687 7.3 283 12.6 101320 37
2010-05-28 07:40:46 51°17.825 2°53.687 5.8 261 12.6 101320 37
2010-05-28 07:40:51 51°17.825 2°53.687 5.3 279 12.6 101320 37
2010-05-28 07:40:56 51°17.825 2°53.687 5 263 12.6 101320 37
2010-05-28 07:41:01 51°17.825 2°53.687 5.8 285 12.6 101320 37
2010-05-28 07:41:06 51°17.825 2°53.687 4.7 264 12.6 101320 36
2010-05-28 07:41:11 51°17.825 2°53.688 4.8 284 12.6 101320 36
2010-05-28 07:41:16 51°17.825 2°53.687 5.5 263 12.6 101310 36
2010-05-28 07:41:21 51°17.825 2°53.688 4.9 280 12.6 101310 36
2010-05-28 07:41:26 51°17.825 2°53.688 5.5 265 12.6 101320 37
2010-05-28 07:41:31 51°17.824 2°53.688 5 283 12.6 101320 37
2010-05-28 07:41:36 51°17.824 2°53.688 4.5 265 12.6 101320 37
2010-05-28 07:41:41 51°17.824 2°53.688 4.6 283 12.6 101320 37
2010-05-28 07:41:46 51°17.824 2°53.688 4.8 264 12.6 101320 37
2010-05-28 07:41:51 51°17.824 2°53.688 5.8 284 12.6 101320 37
2010-05-28 07:41:55 51°17.824 2°53.688 4.5 264 12.6 101320 36
2010-05-28 07:42:01 51°17.824 2°53.688 5 284 12.6 101320 36
2010-05-28 07:42:06 51°17.824 2°53.688 5 263 12.6 101320 36
2010-05-28 07:42:11 51°17.824 2°53.688 5.3 284 12.5 101320 37
2010-05-28 07:42:16 51°17.824 2°53.688 6 261 12.5 101320 35
2010-05-28 07:42:21 51°17.824 2°53.688 5.4 279 12.5 101320 35
2010-05-28 07:42:26 51°17.824 2°53.688 6 262 12.4 101320 36
2010-05-28 07:42:31 51°17.825 2°53.688 4.1 278 12.4 101320 36
2010-05-28 07:42:36 51°17.824 2°53.688 4.5 265 12.4 101320 36
2010-05-28 07:42:41 51°17.824 2°53.688 5.4 284 12.5 101320 35
2010-05-28 07:42:46 51°17.824 2°53.688 4.4 263 12.4 101320 36
2010-05-28 07:42:51 51°17.824 2°53.688 5.5 281 12.4 101320 36
2010-05-28 07:42:56 51°17.825 2°53.688 5.1 261 12.4 101320 36
2010-05-28 07:43:01 51°17.825 2°53.688 4.5 279 12.5 101320 36
2010-05-28 07:43:06 51°17.825 2°53.688 5.5 259 12.4 101320 37
2010-05-28 07:43:11 51°17.825 2°53.688 4.8 279 12.4 101320 37
2010-05-28 07:43:16 51°17.825 2°53.688 6.5 261 12.4 101320 36
2010-05-28 07:43:21 51°17.826 2°53.688 4.9 281 12.4 101320 36
2010-05-28 07:43:26 51°17.826 2°53.688 5.4 262 12.4 101320 36
2010-05-28 07:43:31 51°17.826 2°53.688 5.1 280 12.4 101320 36
2010-05-28 07:43:36 51°17.826 2°53.688 4.9 264 12.4 101320 37
2010-05-28 07:43:41 51°17.826 2°53.688 5.4 285 12.4 101320 37
2010-05-28 07:43:46 51°17.826 2°53.688 4.8 261 12.4 101320 37
2010-05-28 07:43:52 51°17.826 2°53.688 6.1 -999 12.4 101320 36
2010-05-28 07:43:56 51°17.826 2°53.687 5.6 262 12.4 101320 35
2010-05-28 07:44:01 51°17.826 2°53.687 4.5 278 12.4 101320 35
2010-05-28 07:44:06 51°17.826 2°53.687 5.2 262 12.4 101320 35
2010-05-28 07:44:10 51°17.826 2°53.688 5.4 281 12.4 101320 36
2010-05-28 07:44:15 51°17.826 2°53.688 5.6 263 12.4 101320 36
2010-05-28 07:44:21 51°17.826 2°53.688 5.8 279 12.4 101320 36
2010-05-28 07:44:26 51°17.826 2°53.688 5.8 263 12.4 101320 36
2010-05-28 07:44:30 51°17.826 2°53.688 4.9 285 12.4 101320 35
2010-05-28 07:44:37 51°17.825 2°53.688 6 262 12.4 101320 35
2010-05-28 07:44:42 51°17.825 2°53.688 5.3 285 12.4 101320 35
2010-05-28 07:44:47 51°17.826 2°53.688 5.5 263 12.4 101320 35
2010-05-28 07:44:52 51°17.826 2°53.688 5 278 12.4 101320 36
2010-05-28 07:44:56 51°17.826 2°53.688 4.6 264 12.4 101320 36
2010-05-28 07:45:01 51°17.826 2°53.688 6.6 282 12.4 101320 36
2010-05-28 07:45:07 51°17.826 2°53.688 5.7 261 12.4 101320 35
2010-05-28 07:45:11 51°17.826 2°53.688 6.1 286 12.4 101320 35
2010-05-28 07:45:16 51°17.826 2°53.688 5.6 261 12.4 101320 36
2010-05-28 07:45:21 51°17.826 2°53.688 5.6 279 12.4 101320 36
2010-05-28 07:45:27 51°17.826 2°53.687 6 259 12.4 101320 36
2010-05-28 07:45:31 51°17.826 2°53.687 6.1 280 12.4 101320 36
2010-05-28 07:45:36 51°17.826 2°53.687 6.1 262 12.4 101330 36
2010-05-28 07:45:41 51°17.827 2°53.687 5.1 285 12.4 101330 36
2010-05-28 07:45:47 51°17.827 2°53.687 5.4 260 12.4 101330 36
2010-05-28 07:45:52 51°17.827 2°53.687 5.6 281 12.4 101330 36
2010-05-28 07:45:56 51°17.827 2°53.687 5.3 261 12.4 101330 36
2010-05-28 07:46:01 51°17.827 2°53.687 5.9 285 12.4 101320 36
2010-05-28 07:46:07 51°17.827 2°53.687 5.7 260 12.4 101320 36
2010-05-28 07:46:11 51°17.827 2°53.687 5.7 282 12.4 101320 36
2010-05-28 07:46:16 51°17.827 2°53.687 5.1 260 12.4 101330 37
2010-05-28 07:46:21 51°17.827 2°53.687 5.5 280 12.4 101330 37
2010-05-28 07:46:27 51°17.827 2°53.687 6.5 260 12.4 101330 38
2010-05-28 07:46:32 51°17.828 2°53.686 5 278 12.4 101330 38
2010-05-28 07:46:36 51°17.828 2°53.686 6.2 259 12.5 101330 36
2010-05-28 07:46:41 51°17.828 2°53.686 6 285 12.5 101330 36
2010-05-28 07:46:46 51°17.828 2°53.686 5.4 260 12.5 101330 36
2010-05-28 07:46:51 51°17.828 2°53.686 5.9 283 12.5 101320 36
2010-05-28 07:46:56 51°17.828 2°53.686 6.3 260 12.5 101320 36
2010-05-28 07:47:01 51°17.828 2°53.686 7.2 282 12.5 101330 37
2010-05-28 07:47:06 51°17.828 2°53.686 6.4 259 12.5 101320 37
2010-05-28 07:47:11 51°17.827 2°53.686 7 285 12.5 101320 37
2010-05-28 07:47:16 51°17.827 2°53.686 6.9 258 12.5 101320 37
2010-05-28 07:47:21 51°17.827 2°53.686 5.4 278 12.5 101330 37
2010-05-28 07:47:26 51°17.827 2°53.686 5.4 261 12.5 101330 36
2010-05-28 07:47:31 51°17.827 2°53.686 5.6 285 12.5 101330 36